sensor_id;sensor_type;location;lat;lon;timestamp;P1;durP1;ratioP1;P2;durP2;ratioP2
29120;SDS011;16191;49.548;8.658;2023-02-18T00:01:09;4.00;;;3.35;;
29120;SDS011;16191;49.548;8.658;2023-02-18T00:03:36;6.32;;;3.85;;
29120;SDS011;16191;49.548;8.658;2023-02-18T00:06:14;3.90;;;3.50;;
29120;SDS011;16191;49.548;8.658;2023-02-18T00:08:41;6.03;;;4.15;;
29120;SDS011;16191;49.548;8.658;2023-02-18T00:11:08;4.32;;;3.80;;
29120;SDS011;16191;49.548;8.658;2023-02-18T00:13:36;5.72;;;3.42;;
29120;SDS011;16191;49.548;8.658;2023-02-18T00:16:10;3.78;;;3.13;;
29120;SDS011;16191;49.548;8.658;2023-02-18T00:18:37;5.00;;;3.25;;
29120;SDS011;16191;49.548;8.658;2023-02-18T00:21:05;5.75;;;3.65;;
29120;SDS011;16191;49.548;8.658;2023-02-18T00:23:33;5.10;;;3.70;;
29120;SDS011;16191;49.548;8.658;2023-02-18T00:28:29;4.20;;;3.35;;
29120;SDS011;16191;49.548;8.658;2023-02-18T00:30:58;4.57;;;3.53;;
29120;SDS011;16191;49.548;8.658;2023-02-18T00:33:25;5.22;;;3.97;;
29120;SDS011;16191;49.548;8.658;2023-02-18T00:35:52;5.20;;;4.00;;
29120;SDS011;16191;49.548;8.658;2023-02-18T00:38:27;4.60;;;3.85;;
29120;SDS011;16191;49.548;8.658;2023-02-18T00:40:54;6.60;;;4.53;;
29120;SDS011;16191;49.548;8.658;2023-02-18T00:43:20;6.47;;;4.35;;
29120;SDS011;16191;49.548;8.658;2023-02-18T00:45:47;6.28;;;4.35;;
29120;SDS011;16191;49.548;8.658;2023-02-18T00:48:13;8.93;;;4.45;;
29120;SDS011;16191;49.548;8.658;2023-02-18T00:50:40;5.18;;;4.45;;
29120;SDS011;16191;49.548;8.658;2023-02-18T00:53:07;5.70;;;4.93;;
29120;SDS011;16191;49.548;8.658;2023-02-18T00:55:37;6.43;;;4.78;;
29120;SDS011;16191;49.548;8.658;2023-02-18T00:58:08;5.88;;;4.93;;
29120;SDS011;16191;49.548;8.658;2023-02-18T01:00:36;7.82;;;5.47;;
29120;SDS011;16191;49.548;8.658;2023-02-18T01:03:03;7.20;;;5.45;;
29120;SDS011;16191;49.548;8.658;2023-02-18T01:05:33;6.57;;;5.63;;
29120;SDS011;16191;49.548;8.658;2023-02-18T01:08:00;6.38;;;5.30;;
29120;SDS011;16191;49.548;8.658;2023-02-18T01:10:28;5.60;;;5.05;;
29120;SDS011;16191;49.548;8.658;2023-02-18T01:12:56;9.65;;;5.57;;
29120;SDS011;16191;49.548;8.658;2023-02-18T01:15:23;6.40;;;4.78;;
29120;SDS011;16191;49.548;8.658;2023-02-18T01:17:50;6.45;;;4.75;;
29120;SDS011;16191;49.548;8.658;2023-02-18T01:20:17;7.10;;;5.18;;
29120;SDS011;16191;49.548;8.658;2023-02-18T01:22:44;5.50;;;4.65;;
29120;SDS011;16191;49.548;8.658;2023-02-18T01:25:11;8.13;;;4.78;;
29120;SDS011;16191;49.548;8.658;2023-02-18T01:27:38;6.25;;;4.97;;
29120;SDS011;16191;49.548;8.658;2023-02-18T01:30:07;5.13;;;3.97;;
29120;SDS011;16191;49.548;8.658;2023-02-18T01:32:35;5.80;;;4.32;;
29120;SDS011;16191;49.548;8.658;2023-02-18T01:35:02;7.60;;;4.70;;
29120;SDS011;16191;49.548;8.658;2023-02-18T01:37:31;5.60;;;4.15;;
29120;SDS011;16191;49.548;8.658;2023-02-18T01:39:57;4.28;;;3.88;;
29120;SDS011;16191;49.548;8.658;2023-02-18T01:42:26;4.43;;;3.50;;
29120;SDS011;16191;49.548;8.658;2023-02-18T01:45:23;5.22;;;3.97;;
29120;SDS011;16191;49.548;8.658;2023-02-18T01:48:00;4.28;;;3.88;;
29120;SDS011;16191;49.548;8.658;2023-02-18T01:50:30;5.90;;;4.15;;
29120;SDS011;16191;49.548;8.658;2023-02-18T01:53:00;5.50;;;4.20;;
29120;SDS011;16191;49.548;8.658;2023-02-18T01:55:29;7.50;;;3.95;;
29120;SDS011;16191;49.548;8.658;2023-02-18T01:57:57;4.80;;;4.05;;
29120;SDS011;16191;49.548;8.658;2023-02-18T02:00:23;6.18;;;4.40;;
29120;SDS011;16191;49.548;8.658;2023-02-18T02:02:51;9.82;;;5.00;;
29120;SDS011;16191;49.548;8.658;2023-02-18T02:05:19;4.72;;;3.50;;
29120;SDS011;16191;49.548;8.658;2023-02-18T02:07:47;4.82;;;3.30;;
29120;SDS011;16191;49.548;8.658;2023-02-18T02:10:18;4.07;;;3.40;;
29120;SDS011;16191;49.548;8.658;2023-02-18T02:15:33;4.60;;;3.50;;
29120;SDS011;16191;49.548;8.658;2023-02-18T02:29:43;4.00;;;3.33;;
29120;SDS011;16191;49.548;8.658;2023-02-18T02:32:57;6.90;;;3.10;;
29120;SDS011;16191;49.548;8.658;2023-02-18T02:38:21;4.13;;;3.53;;
29120;SDS011;16191;49.548;8.658;2023-02-18T02:41:15;4.10;;;3.10;;
29120;SDS011;16191;49.548;8.658;2023-02-18T02:44:09;3.13;;;2.80;;
29120;SDS011;16191;49.548;8.658;2023-02-18T02:46:38;5.90;;;3.08;;
29120;SDS011;16191;49.548;8.658;2023-02-18T02:54:43;4.38;;;2.58;;
29120;SDS011;16191;49.548;8.658;2023-02-18T02:59:53;2.90;;;2.60;;
29120;SDS011;16191;49.548;8.658;2023-02-18T03:05:20;3.22;;;2.90;;
29120;SDS011;16191;49.548;8.658;2023-02-18T03:10:41;4.57;;;2.78;;
29120;SDS011;16191;49.548;8.658;2023-02-18T03:18:59;3.45;;;2.90;;
29120;SDS011;16191;49.548;8.658;2023-02-18T03:21:37;5.43;;;3.30;;
29120;SDS011;16191;49.548;8.658;2023-02-18T03:24:12;4.03;;;2.58;;
29120;SDS011;16191;49.548;8.658;2023-02-18T03:26:47;9.02;;;2.83;;
29120;SDS011;16191;49.548;8.658;2023-02-18T03:29:21;2.40;;;2.20;;
29120;SDS011;16191;49.548;8.658;2023-02-18T03:31:51;2.58;;;2.30;;
29120;SDS011;16191;49.548;8.658;2023-02-18T03:34:24;3.28;;;2.38;;
29120;SDS011;16191;49.548;8.658;2023-02-18T03:36:54;4.20;;;2.55;;
29120;SDS011;16191;49.548;8.658;2023-02-18T03:39:24;2.70;;;2.45;;
29120;SDS011;16191;49.548;8.658;2023-02-18T03:41:54;6.30;;;2.40;;
29120;SDS011;16191;49.548;8.658;2023-02-18T03:44:22;3.13;;;2.17;;
29120;SDS011;16191;49.548;8.658;2023-02-18T03:46:51;4.72;;;2.65;;
29120;SDS011;16191;49.548;8.658;2023-02-18T03:49:18;3.60;;;2.60;;
29120;SDS011;16191;49.548;8.658;2023-02-18T03:51:46;3.53;;;2.50;;
29120;SDS011;16191;49.548;8.658;2023-02-18T03:54:13;2.80;;;1.98;;
29120;SDS011;16191;49.548;8.658;2023-02-18T03:56:41;4.78;;;2.90;;
29120;SDS011;16191;49.548;8.658;2023-02-18T03:59:08;4.65;;;2.75;;
29120;SDS011;16191;49.548;8.658;2023-02-18T04:01:37;2.70;;;2.50;;
29120;SDS011;16191;49.548;8.658;2023-02-18T04:04:04;4.00;;;3.05;;
29120;SDS011;16191;49.548;8.658;2023-02-18T04:06:31;3.50;;;2.80;;
29120;SDS011;16191;49.548;8.658;2023-02-18T04:08:58;3.85;;;2.75;;
29120;SDS011;16191;49.548;8.658;2023-02-18T04:11:25;3.47;;;3.15;;
29120;SDS011;16191;49.548;8.658;2023-02-18T04:13:51;5.47;;;3.22;;
29120;SDS011;16191;49.548;8.658;2023-02-18T04:16:18;4.10;;;2.72;;
29120;SDS011;16191;49.548;8.658;2023-02-18T04:18:45;4.68;;;3.05;;
29120;SDS011;16191;49.548;8.658;2023-02-18T04:21:12;3.88;;;3.45;;
29120;SDS011;16191;49.548;8.658;2023-02-18T04:23:38;3.53;;;3.22;;
29120;SDS011;16191;49.548;8.658;2023-02-18T04:26:05;4.15;;;3.63;;
29120;SDS011;16191;49.548;8.658;2023-02-18T04:28:32;5.20;;;3.05;;
29120;SDS011;16191;49.548;8.658;2023-02-18T04:30:59;3.95;;;3.20;;
29120;SDS011;16191;49.548;8.658;2023-02-18T04:33:25;4.65;;;3.35;;
29120;SDS011;16191;49.548;8.658;2023-02-18T04:35:52;6.55;;;3.78;;
29120;SDS011;16191;49.548;8.658;2023-02-18T04:38:19;5.65;;;4.25;;
29120;SDS011;16191;49.548;8.658;2023-02-18T04:40:46;5.50;;;4.30;;
29120;SDS011;16191;49.548;8.658;2023-02-18T04:43:12;4.63;;;4.00;;
29120;SDS011;16191;49.548;8.658;2023-02-18T04:45:39;5.43;;;3.85;;
29120;SDS011;16191;49.548;8.658;2023-02-18T04:48:05;6.60;;;4.10;;
29120;SDS011;16191;49.548;8.658;2023-02-18T04:50:33;5.25;;;4.03;;
29120;SDS011;16191;49.548;8.658;2023-02-18T04:53:00;5.88;;;4.00;;
29120;SDS011;16191;49.548;8.658;2023-02-18T04:55:26;6.43;;;4.35;;
29120;SDS011;16191;49.548;8.658;2023-02-18T04:57:53;5.70;;;4.20;;
29120;SDS011;16191;49.548;8.658;2023-02-18T05:00:20;6.63;;;4.82;;
29120;SDS011;16191;49.548;8.658;2023-02-18T05:02:46;5.75;;;4.53;;
29120;SDS011;16191;49.548;8.658;2023-02-18T05:05:14;5.20;;;4.20;;
29120;SDS011;16191;49.548;8.658;2023-02-18T05:07:41;5.13;;;4.40;;
29120;SDS011;16191;49.548;8.658;2023-02-18T05:10:10;5.35;;;4.40;;
29120;SDS011;16191;49.548;8.658;2023-02-18T05:12:39;7.60;;;4.80;;
29120;SDS011;16191;49.548;8.658;2023-02-18T05:15:06;7.15;;;4.82;;
29120;SDS011;16191;49.548;8.658;2023-02-18T05:17:33;8.23;;;4.57;;
29120;SDS011;16191;49.548;8.658;2023-02-18T05:20:00;6.47;;;4.45;;
29120;SDS011;16191;49.548;8.658;2023-02-18T05:22:27;5.18;;;4.38;;
29120;SDS011;16191;49.548;8.658;2023-02-18T05:24:53;7.32;;;4.97;;
29120;SDS011;16191;49.548;8.658;2023-02-18T05:27:20;6.78;;;4.60;;
29120;SDS011;16191;49.548;8.658;2023-02-18T05:29:47;8.05;;;4.85;;
29120;SDS011;16191;49.548;8.658;2023-02-18T05:32:14;8.75;;;5.38;;
29120;SDS011;16191;49.548;8.658;2023-02-18T05:34:41;6.45;;;5.30;;
29120;SDS011;16191;49.548;8.658;2023-02-18T05:37:07;6.20;;;5.40;;
29120;SDS011;16191;49.548;8.658;2023-02-18T05:39:34;6.47;;;5.28;;
29120;SDS011;16191;49.548;8.658;2023-02-18T05:42:01;6.18;;;5.25;;
29120;SDS011;16191;49.548;8.658;2023-02-18T05:44:28;7.35;;;5.07;;
29120;SDS011;16191;49.548;8.658;2023-02-18T05:49:27;8.35;;;5.35;;
29120;SDS011;16191;49.548;8.658;2023-02-18T05:51:55;7.10;;;5.53;;
29120;SDS011;16191;49.548;8.658;2023-02-18T05:54:22;7.28;;;5.85;;
29120;SDS011;16191;49.548;8.658;2023-02-18T05:56:49;7.35;;;5.45;;
29120;SDS011;16191;49.548;8.658;2023-02-18T05:59:16;7.07;;;5.53;;
29120;SDS011;16191;49.548;8.658;2023-02-18T06:01:43;5.70;;;4.93;;
29120;SDS011;16191;49.548;8.658;2023-02-18T06:04:10;8.38;;;4.80;;
29120;SDS011;16191;49.548;8.658;2023-02-18T06:06:37;7.68;;;4.75;;
29120;SDS011;16191;49.548;8.658;2023-02-18T06:09:05;5.68;;;4.80;;
29120;SDS011;16191;49.548;8.658;2023-02-18T06:11:32;7.43;;;5.07;;
29120;SDS011;16191;49.548;8.658;2023-02-18T06:14:00;7.32;;;5.13;;
29120;SDS011;16191;49.548;8.658;2023-02-18T06:16:27;6.65;;;5.50;;
29120;SDS011;16191;49.548;8.658;2023-02-18T06:18:54;6.95;;;5.53;;
29120;SDS011;16191;49.548;8.658;2023-02-18T06:21:20;6.35;;;5.10;;
29120;SDS011;16191;49.548;8.658;2023-02-18T06:23:47;8.52;;;5.95;;
29120;SDS011;16191;49.548;8.658;2023-02-18T06:26:14;5.38;;;4.88;;
29120;SDS011;16191;49.548;8.658;2023-02-18T06:28:41;7.25;;;5.68;;
29120;SDS011;16191;49.548;8.658;2023-02-18T06:31:07;8.13;;;5.57;;
29120;SDS011;16191;49.548;8.658;2023-02-18T06:33:34;7.68;;;5.63;;
29120;SDS011;16191;49.548;8.658;2023-02-18T06:36:03;5.97;;;5.32;;
29120;SDS011;16191;49.548;8.658;2023-02-18T06:38:37;6.50;;;5.07;;
29120;SDS011;16191;49.548;8.658;2023-02-18T06:41:08;6.85;;;5.63;;
29120;SDS011;16191;49.548;8.658;2023-02-18T06:43:35;10.50;;;6.10;;
29120;SDS011;16191;49.548;8.658;2023-02-18T06:46:02;7.80;;;5.80;;
29120;SDS011;16191;49.548;8.658;2023-02-18T06:48:30;7.65;;;5.88;;
29120;SDS011;16191;49.548;8.658;2023-02-18T06:50:57;7.50;;;5.80;;
29120;SDS011;16191;49.548;8.658;2023-02-18T06:53:25;8.35;;;6.05;;
29120;SDS011;16191;49.548;8.658;2023-02-18T06:55:52;9.05;;;5.65;;
29120;SDS011;16191;49.548;8.658;2023-02-18T06:58:18;10.10;;;6.53;;
29120;SDS011;16191;49.548;8.658;2023-02-18T07:00:45;9.07;;;6.57;;
29120;SDS011;16191;49.548;8.658;2023-02-18T07:03:12;8.20;;;6.22;;
29120;SDS011;16191;49.548;8.658;2023-02-18T07:05:39;8.20;;;6.25;;
29120;SDS011;16191;49.548;8.658;2023-02-18T07:08:07;10.40;;;6.03;;
29120;SDS011;16191;49.548;8.658;2023-02-18T07:10:34;10.45;;;6.82;;
29120;SDS011;16191;49.548;8.658;2023-02-18T07:13:02;8.88;;;6.53;;
29120;SDS011;16191;49.548;8.658;2023-02-18T07:15:28;8.57;;;6.53;;
29120;SDS011;16191;49.548;8.658;2023-02-18T07:17:55;9.65;;;6.20;;
29120;SDS011;16191;49.548;8.658;2023-02-18T07:20:22;9.35;;;6.15;;
29120;SDS011;16191;49.548;8.658;2023-02-18T07:22:50;9.13;;;6.07;;
29120;SDS011;16191;49.548;8.658;2023-02-18T07:25:17;9.30;;;6.32;;
29120;SDS011;16191;49.548;8.658;2023-02-18T07:27:45;7.65;;;6.50;;
29120;SDS011;16191;49.548;8.658;2023-02-18T07:30:12;10.10;;;6.25;;
29120;SDS011;16191;49.548;8.658;2023-02-18T07:32:39;7.28;;;6.28;;
29120;SDS011;16191;49.548;8.658;2023-02-18T07:35:06;8.88;;;6.60;;
29120;SDS011;16191;49.548;8.658;2023-02-18T07:37:32;8.52;;;6.35;;
29120;SDS011;16191;49.548;8.658;2023-02-18T07:39:59;9.13;;;6.18;;
29120;SDS011;16191;49.548;8.658;2023-02-18T07:42:25;7.85;;;6.13;;
29120;SDS011;16191;49.548;8.658;2023-02-18T07:44:52;7.25;;;5.80;;
29120;SDS011;16191;49.548;8.658;2023-02-18T07:47:19;9.85;;;6.38;;
29120;SDS011;16191;49.548;8.658;2023-02-18T07:49:46;6.93;;;6.10;;
29120;SDS011;16191;49.548;8.658;2023-02-18T07:52:13;7.28;;;6.30;;
29120;SDS011;16191;49.548;8.658;2023-02-18T07:54:40;7.05;;;6.10;;
29120;SDS011;16191;49.548;8.658;2023-02-18T07:57:07;7.28;;;6.07;;
29120;SDS011;16191;49.548;8.658;2023-02-18T07:59:34;10.40;;;6.68;;
29120;SDS011;16191;49.548;8.658;2023-02-18T08:02:00;8.40;;;6.35;;
29120;SDS011;16191;49.548;8.658;2023-02-18T08:04:27;7.20;;;5.88;;
29120;SDS011;16191;49.548;8.658;2023-02-18T08:06:54;9.00;;;6.28;;
29120;SDS011;16191;49.548;8.658;2023-02-18T08:09:20;7.72;;;6.35;;
29120;SDS011;16191;49.548;8.658;2023-02-18T08:11:47;9.43;;;6.05;;
29120;SDS011;16191;49.548;8.658;2023-02-18T08:14:14;7.88;;;6.20;;
29120;SDS011;16191;49.548;8.658;2023-02-18T08:16:41;6.50;;;5.00;;
29120;SDS011;16191;49.548;8.658;2023-02-18T08:19:08;13.25;;;5.72;;
29120;SDS011;16191;49.548;8.658;2023-02-18T08:21:34;7.45;;;5.20;;
29120;SDS011;16191;49.548;8.658;2023-02-18T08:24:01;7.80;;;5.45;;
29120;SDS011;16191;49.548;8.658;2023-02-18T08:26:27;8.90;;;4.70;;
29120;SDS011;16191;49.548;8.658;2023-02-18T08:28:54;5.97;;;4.70;;
29120;SDS011;16191;49.548;8.658;2023-02-18T08:31:22;7.72;;;4.55;;
29120;SDS011;16191;49.548;8.658;2023-02-18T08:33:52;7.53;;;5.05;;
29120;SDS011;16191;49.548;8.658;2023-02-18T08:36:20;6.60;;;4.38;;
29120;SDS011;16191;49.548;8.658;2023-02-18T08:38:47;10.50;;;5.05;;
29120;SDS011;16191;49.548;8.658;2023-02-18T08:41:15;7.25;;;5.10;;
29120;SDS011;16191;49.548;8.658;2023-02-18T08:43:44;6.07;;;4.93;;
29120;SDS011;16191;49.548;8.658;2023-02-18T08:46:11;6.53;;;5.07;;
29120;SDS011;16191;49.548;8.658;2023-02-18T08:48:42;5.38;;;4.40;;
29120;SDS011;16191;49.548;8.658;2023-02-18T08:51:10;6.95;;;4.32;;
29120;SDS011;16191;49.548;8.658;2023-02-18T08:53:38;6.40;;;5.23;;
29120;SDS011;16191;49.548;8.658;2023-02-18T08:56:06;5.80;;;4.95;;
29120;SDS011;16191;49.548;8.658;2023-02-18T08:58:34;9.65;;;5.47;;
29120;SDS011;16191;49.548;8.658;2023-02-18T09:01:06;6.53;;;4.90;;
29120;SDS011;16191;49.548;8.658;2023-02-18T09:03:34;7.60;;;4.90;;
29120;SDS011;16191;49.548;8.658;2023-02-18T09:06:02;5.90;;;4.53;;
29120;SDS011;16191;49.548;8.658;2023-02-18T09:08:28;5.22;;;4.70;;
29120;SDS011;16191;49.548;8.658;2023-02-18T09:10:56;7.80;;;4.38;;
29120;SDS011;16191;49.548;8.658;2023-02-18T09:13:23;5.82;;;4.40;;
29120;SDS011;16191;49.548;8.658;2023-02-18T09:16:14;7.57;;;5.15;;
29120;SDS011;16191;49.548;8.658;2023-02-18T09:18:43;7.40;;;5.68;;
29120;SDS011;16191;49.548;8.658;2023-02-18T09:21:11;6.18;;;4.80;;
29120;SDS011;16191;49.548;8.658;2023-02-18T09:23:40;7.28;;;4.70;;
29120;SDS011;16191;49.548;8.658;2023-02-18T09:26:28;5.88;;;5.00;;
29120;SDS011;16191;49.548;8.658;2023-02-18T09:28:55;6.65;;;5.10;;
29120;SDS011;16191;49.548;8.658;2023-02-18T09:31:24;8.50;;;5.43;;
29120;SDS011;16191;49.548;8.658;2023-02-18T09:33:55;6.78;;;4.93;;
29120;SDS011;16191;49.548;8.658;2023-02-18T09:36:24;8.07;;;5.03;;
29120;SDS011;16191;49.548;8.658;2023-02-18T09:38:52;8.05;;;5.47;;
29120;SDS011;16191;49.548;8.658;2023-02-18T09:41:23;9.05;;;5.05;;
29120;SDS011;16191;49.548;8.658;2023-02-18T09:43:54;8.75;;;5.72;;
29120;SDS011;16191;49.548;8.658;2023-02-18T09:46:28;7.95;;;6.00;;
29120;SDS011;16191;49.548;8.658;2023-02-18T09:49:02;10.35;;;5.93;;
29120;SDS011;16191;49.548;8.658;2023-02-18T09:51:32;9.13;;;7.10;;
29120;SDS011;16191;49.548;8.658;2023-02-18T09:54:00;9.85;;;6.45;;
29120;SDS011;16191;49.548;8.658;2023-02-18T09:56:30;15.88;;;7.22;;
29120;SDS011;16191;49.548;8.658;2023-02-18T09:59:02;10.02;;;6.57;;
29120;SDS011;16191;49.548;8.658;2023-02-18T10:01:34;11.95;;;7.05;;
29120;SDS011;16191;49.548;8.658;2023-02-18T10:06:52;11.02;;;6.93;;
29120;SDS011;16191;49.548;8.658;2023-02-18T10:11:51;10.20;;;6.50;;
29120;SDS011;16191;49.548;8.658;2023-02-18T10:14:21;12.43;;;6.80;;
29120;SDS011;16191;49.548;8.658;2023-02-18T10:16:50;18.02;;;7.22;;
29120;SDS011;16191;49.548;8.658;2023-02-18T10:19:37;12.32;;;7.03;;
29120;SDS011;16191;49.548;8.658;2023-02-18T10:22:07;10.27;;;7.00;;
29120;SDS011;16191;49.548;8.658;2023-02-18T10:24:47;10.23;;;6.53;;
29120;SDS011;16191;49.548;8.658;2023-02-18T10:27:32;9.43;;;6.55;;
29120;SDS011;16191;49.548;8.658;2023-02-18T10:32:50;8.65;;;5.72;;
29120;SDS011;16191;49.548;8.658;2023-02-18T10:35:33;9.75;;;6.07;;
29120;SDS011;16191;49.548;8.658;2023-02-18T10:38:19;10.07;;;5.88;;
29120;SDS011;16191;49.548;8.658;2023-02-18T10:41:15;7.40;;;5.57;;
29120;SDS011;16191;49.548;8.658;2023-02-18T10:46:52;11.00;;;5.55;;
29120;SDS011;16191;49.548;8.658;2023-02-18T10:49:58;8.32;;;6.20;;
29120;SDS011;16191;49.548;8.658;2023-02-18T10:52:28;8.75;;;6.15;;
29120;SDS011;16191;49.548;8.658;2023-02-18T10:55:00;9.93;;;6.32;;
29120;SDS011;16191;49.548;8.658;2023-02-18T10:57:32;8.35;;;5.85;;
29120;SDS011;16191;49.548;8.658;2023-02-18T11:00:02;9.95;;;7.22;;
29120;SDS011;16191;49.548;8.658;2023-02-18T11:05:44;13.07;;;7.45;;
29120;SDS011;16191;49.548;8.658;2023-02-18T11:08:15;10.65;;;7.25;;
29120;SDS011;16191;49.548;8.658;2023-02-18T11:10:46;15.38;;;9.30;;
29120;SDS011;16191;49.548;8.658;2023-02-18T11:13:15;13.10;;;8.38;;
29120;SDS011;16191;49.548;8.658;2023-02-18T11:15:53;12.05;;;7.28;;
29120;SDS011;16191;49.548;8.658;2023-02-18T11:20:56;12.10;;;7.57;;
29120;SDS011;16191;49.548;8.658;2023-02-18T11:23:29;11.27;;;7.63;;
29120;SDS011;16191;49.548;8.658;2023-02-18T11:31:05;13.30;;;7.60;;
29120;SDS011;16191;49.548;8.658;2023-02-18T11:33:36;9.88;;;7.55;;
29120;SDS011;16191;49.548;8.658;2023-02-18T11:36:16;10.65;;;7.65;;
29120;SDS011;16191;49.548;8.658;2023-02-18T11:38:51;15.45;;;6.95;;
29120;SDS011;16191;49.548;8.658;2023-02-18T11:41:33;13.77;;;7.00;;
29120;SDS011;16191;49.548;8.658;2023-02-18T11:44:03;14.85;;;6.72;;
29120;SDS011;16191;49.548;8.658;2023-02-18T11:46:56;8.32;;;5.82;;
29120;SDS011;16191;49.548;8.658;2023-02-18T11:49:27;7.95;;;5.88;;
29120;SDS011;16191;49.548;8.658;2023-02-18T11:52:02;8.35;;;5.45;;
29120;SDS011;16191;49.548;8.658;2023-02-18T11:54:38;7.65;;;5.75;;
29120;SDS011;16191;49.548;8.658;2023-02-18T11:57:08;7.68;;;5.60;;
29120;SDS011;16191;49.548;8.658;2023-02-18T11:59:38;9.50;;;5.20;;
29120;SDS011;16191;49.548;8.658;2023-02-18T12:04:39;13.05;;;4.95;;
29120;SDS011;16191;49.548;8.658;2023-02-18T12:07:11;9.38;;;5.95;;
29120;SDS011;16191;49.548;8.658;2023-02-18T12:10:03;10.32;;;5.95;;
29120;SDS011;16191;49.548;8.658;2023-02-18T12:13:05;7.68;;;4.72;;
29120;SDS011;16191;49.548;8.658;2023-02-18T12:21:34;7.32;;;4.57;;
29120;SDS011;16191;49.548;8.658;2023-02-18T12:24:09;10.68;;;4.40;;
29120;SDS011;16191;49.548;8.658;2023-02-18T12:26:57;5.38;;;3.78;;
29120;SDS011;16191;49.548;8.658;2023-02-18T12:29:39;6.93;;;5.40;;
29120;SDS011;16191;49.548;8.658;2023-02-18T12:32:15;8.05;;;4.78;;
29120;SDS011;16191;49.548;8.658;2023-02-18T12:40:54;7.32;;;4.68;;
29120;SDS011;16191;49.548;8.658;2023-02-18T12:46:11;7.40;;;4.72;;
29120;SDS011;16191;49.548;8.658;2023-02-18T12:54:50;11.68;;;6.10;;
29120;SDS011;16191;49.548;8.658;2023-02-18T13:00:37;11.82;;;6.32;;
29120;SDS011;16191;49.548;8.658;2023-02-18T13:11:45;8.30;;;4.10;;
29120;SDS011;16191;49.548;8.658;2023-02-18T13:14:24;6.80;;;3.83;;
29120;SDS011;16191;49.548;8.658;2023-02-18T13:16:57;9.07;;;3.92;;
29120;SDS011;16191;49.548;8.658;2023-02-18T13:22:06;7.82;;;3.60;;
29120;SDS011;16191;49.548;8.658;2023-02-18T13:24:39;6.55;;;3.72;;
29120;SDS011;16191;49.548;8.658;2023-02-18T13:27:24;8.43;;;3.72;;
29120;SDS011;16191;49.548;8.658;2023-02-18T13:39:02;7.50;;;3.60;;
29120;SDS011;16191;49.548;8.658;2023-02-18T13:41:40;9.27;;;3.40;;
29120;SDS011;16191;49.548;8.658;2023-02-18T13:44:38;9.75;;;4.00;;
29120;SDS011;16191;49.548;8.658;2023-02-18T13:46:55;10.85;;;3.95;;
29120;SDS011;16191;49.548;8.658;2023-02-18T13:49:24;6.90;;;3.83;;
29120;SDS011;16191;49.548;8.658;2023-02-18T13:51:57;4.93;;;3.47;;
29120;SDS011;16191;49.548;8.658;2023-02-18T13:54:27;7.82;;;3.38;;
29120;SDS011;16191;49.548;8.658;2023-02-18T13:56:59;7.78;;;3.17;;
29120;SDS011;16191;49.548;8.658;2023-02-18T13:59:37;4.00;;;3.40;;
29120;SDS011;16191;49.548;8.658;2023-02-18T14:04:50;8.88;;;3.33;;
29120;SDS011;16191;49.548;8.658;2023-02-18T14:17:47;5.10;;;3.10;;
29120;SDS011;16191;49.548;8.658;2023-02-18T14:23:37;4.63;;;3.00;;
29120;SDS011;16191;49.548;8.658;2023-02-18T14:26:09;5.15;;;3.17;;
29120;SDS011;16191;49.548;8.658;2023-02-18T14:39:56;6.88;;;2.85;;
29120;SDS011;16191;49.548;8.658;2023-02-18T14:48:13;4.57;;;3.00;;
29120;SDS011;16191;49.548;8.658;2023-02-18T14:50:51;7.63;;;3.22;;
29120;SDS011;16191;49.548;8.658;2023-02-18T14:53:19;4.53;;;3.20;;
29120;SDS011;16191;49.548;8.658;2023-02-18T14:55:52;15.63;;;3.40;;
29120;SDS011;16191;49.548;8.658;2023-02-18T14:58:25;3.50;;;2.40;;
29120;SDS011;16191;49.548;8.658;2023-02-18T15:00:55;4.93;;;3.25;;
29120;SDS011;16191;49.548;8.658;2023-02-18T15:03:21;5.93;;;2.80;;
29120;SDS011;16191;49.548;8.658;2023-02-18T15:05:49;8.13;;;2.95;;
29120;SDS011;16191;49.548;8.658;2023-02-18T15:13:36;5.57;;;3.13;;
29120;SDS011;16191;49.548;8.658;2023-02-18T15:16:28;5.38;;;2.80;;
29120;SDS011;16191;49.548;8.658;2023-02-18T15:18:58;6.55;;;2.97;;
29120;SDS011;16191;49.548;8.658;2023-02-18T15:21:29;8.70;;;2.95;;
29120;SDS011;16191;49.548;8.658;2023-02-18T15:23:59;4.75;;;2.83;;
29120;SDS011;16191;49.548;8.658;2023-02-18T15:26:35;5.35;;;3.08;;
29120;SDS011;16191;49.548;8.658;2023-02-18T15:29:18;4.00;;;2.67;;
29120;SDS011;16191;49.548;8.658;2023-02-18T15:31:47;8.23;;;3.03;;
29120;SDS011;16191;49.548;8.658;2023-02-18T15:34:24;3.22;;;2.88;;
29120;SDS011;16191;49.548;8.658;2023-02-18T15:36:57;5.57;;;2.88;;
29120;SDS011;16191;49.548;8.658;2023-02-18T15:39:25;4.55;;;2.55;;
29120;SDS011;16191;49.548;8.658;2023-02-18T15:41:57;3.72;;;2.30;;
29120;SDS011;16191;49.548;8.658;2023-02-18T15:44:29;5.57;;;2.97;;
29120;SDS011;16191;49.548;8.658;2023-02-18T15:47:06;5.40;;;2.95;;
29120;SDS011;16191;49.548;8.658;2023-02-18T15:49:35;6.05;;;3.35;;
29120;SDS011;16191;49.548;8.658;2023-02-18T15:52:03;4.90;;;2.97;;
29120;SDS011;16191;49.548;8.658;2023-02-18T15:54:32;6.53;;;3.55;;
29120;SDS011;16191;49.548;8.658;2023-02-18T15:57:00;5.07;;;2.80;;
29120;SDS011;16191;49.548;8.658;2023-02-18T15:59:30;7.13;;;3.20;;
29120;SDS011;16191;49.548;8.658;2023-02-18T16:02:22;11.65;;;3.90;;
29120;SDS011;16191;49.548;8.658;2023-02-18T16:04:52;5.72;;;3.42;;
29120;SDS011;16191;49.548;8.658;2023-02-18T16:10:06;6.93;;;4.00;;
29120;SDS011;16191;49.548;8.658;2023-02-18T16:12:54;10.43;;;4.15;;
29120;SDS011;16191;49.548;8.658;2023-02-18T16:15:30;7.47;;;3.75;;
29120;SDS011;16191;49.548;8.658;2023-02-18T16:18:03;7.32;;;3.92;;
29120;SDS011;16191;49.548;8.658;2023-02-18T16:20:33;6.35;;;3.75;;
29120;SDS011;16191;49.548;8.658;2023-02-18T16:23:07;7.30;;;3.75;;
29120;SDS011;16191;49.548;8.658;2023-02-18T16:25:45;7.72;;;4.22;;
29120;SDS011;16191;49.548;8.658;2023-02-18T16:28:15;6.53;;;4.07;;
29120;SDS011;16191;49.548;8.658;2023-02-18T16:30:43;9.02;;;4.03;;
29120;SDS011;16191;49.548;8.658;2023-02-18T16:33:11;6.28;;;4.45;;
29120;SDS011;16191;49.548;8.658;2023-02-18T16:35:38;6.43;;;4.50;;
29120;SDS011;16191;49.548;8.658;2023-02-18T16:38:17;7.28;;;4.38;;
29120;SDS011;16191;49.548;8.658;2023-02-18T16:43:13;7.00;;;3.65;;
29120;SDS011;16191;49.548;8.658;2023-02-18T16:45:47;7.22;;;4.10;;
29120;SDS011;16191;49.548;8.658;2023-02-18T16:48:23;5.07;;;3.67;;
29120;SDS011;16191;49.548;8.658;2023-02-18T16:50:53;8.82;;;4.10;;
29120;SDS011;16191;49.548;8.658;2023-02-18T16:53:25;7.13;;;3.90;;
29120;SDS011;16191;49.548;8.658;2023-02-18T16:55:52;5.75;;;3.60;;
29120;SDS011;16191;49.548;8.658;2023-02-18T16:58:18;7.25;;;3.97;;
29120;SDS011;16191;49.548;8.658;2023-02-18T17:00:45;4.85;;;3.47;;
29120;SDS011;16191;49.548;8.658;2023-02-18T17:03:14;6.15;;;3.90;;
29120;SDS011;16191;49.548;8.658;2023-02-18T17:05:42;9.02;;;4.25;;
29120;SDS011;16191;49.548;8.658;2023-02-18T17:08:16;9.68;;;4.18;;
29120;SDS011;16191;49.548;8.658;2023-02-18T17:10:44;7.45;;;4.13;;
29120;SDS011;16191;49.548;8.658;2023-02-18T17:13:14;8.18;;;3.63;;
29120;SDS011;16191;49.548;8.658;2023-02-18T17:15:43;6.78;;;4.18;;
29120;SDS011;16191;49.548;8.658;2023-02-18T17:18:13;7.15;;;4.75;;
29120;SDS011;16191;49.548;8.658;2023-02-18T17:20:40;6.75;;;4.38;;
29120;SDS011;16191;49.548;8.658;2023-02-18T17:23:08;7.07;;;4.35;;
29120;SDS011;16191;49.548;8.658;2023-02-18T17:25:39;7.32;;;4.55;;
29120;SDS011;16191;49.548;8.658;2023-02-18T17:28:06;11.23;;;4.85;;
29120;SDS011;16191;49.548;8.658;2023-02-18T17:30:39;12.25;;;4.40;;
29120;SDS011;16191;49.548;8.658;2023-02-18T17:33:09;9.88;;;4.70;;
29120;SDS011;16191;49.548;8.658;2023-02-18T17:35:40;6.75;;;5.05;;
29120;SDS011;16191;49.548;8.658;2023-02-18T17:38:13;7.30;;;4.65;;
29120;SDS011;16191;49.548;8.658;2023-02-18T17:40:42;8.57;;;4.65;;